sensor_id;sensor_type;location;lat;lon;timestamp;pressure;altitude;pressure_sealevel;temperature;humidity
49759;BME280;35654;46.080;11.118;2023-02-03T00:01:13;100259.63;;;6.91;47.30
49759;BME280;35654;46.080;11.118;2023-02-03T00:03:40;100248.34;;;6.83;47.45
49759;BME280;35654;46.080;11.118;2023-02-03T00:06:06;100250.06;;;6.89;47.46
49759;BME280;35654;46.080;11.118;2023-02-03T00:08:32;100251.38;;;6.86;47.39
49759;BME280;35654;46.080;11.118;2023-02-03T00:10:59;100261.25;;;6.92;47.21
49759;BME280;35654;46.080;11.118;2023-02-03T00:13:25;100260.84;;;7.00;47.29
49759;BME280;35654;46.080;11.118;2023-02-03T00:15:52;100259.75;;;7.01;47.09
49759;BME280;35654;46.080;11.118;2023-02-03T00:18:18;100259.97;;;6.95;47.43
49759;BME280;35654;46.080;11.118;2023-02-03T00:20:45;100261.13;;;6.82;47.96
49759;BME280;35654;46.080;11.118;2023-02-03T00:23:11;100262.78;;;6.83;48.33
49759;BME280;35654;46.080;11.118;2023-02-03T00:25:37;100271.00;;;6.88;47.80
49759;BME280;35654;46.080;11.118;2023-02-03T00:28:03;100279.50;;;6.92;47.48
49759;BME280;35654;46.080;11.118;2023-02-03T00:30:32;100271.09;;;6.93;47.42
49759;BME280;35654;46.080;11.118;2023-02-03T00:32:59;100277.69;;;6.97;47.30
49759;BME280;35654;46.080;11.118;2023-02-03T00:35:27;100269.06;;;6.84;47.67
49759;BME280;35654;46.080;11.118;2023-02-03T00:37:56;100275.28;;;6.68;48.17
49759;BME280;35654;46.080;11.118;2023-02-03T00:40:24;100275.56;;;6.66;47.31
49759;BME280;35654;46.080;11.118;2023-02-03T00:42:51;100284.63;;;6.72;46.90
49759;BME280;35654;46.080;11.118;2023-02-03T00:45:18;100269.94;;;6.73;46.34
49759;BME280;35654;46.080;11.118;2023-02-03T00:47:44;100276.19;;;6.73;46.29
49759;BME280;35654;46.080;11.118;2023-02-03T00:50:11;100277.78;;;6.69;46.11
49759;BME280;35654;46.080;11.118;2023-02-03T00:52:38;100290.31;;;6.70;46.15
49759;BME280;35654;46.080;11.118;2023-02-03T00:55:05;100295.19;;;6.68;46.45
49759;BME280;35654;46.080;11.118;2023-02-03T00:57:31;100291.81;;;6.61;46.53
49759;BME280;35654;46.080;11.118;2023-02-03T00:59:58;100288.06;;;6.51;47.09
49759;BME280;35654;46.080;11.118;2023-02-03T01:02:24;100292.78;;;6.38;47.29
49759;BME280;35654;46.080;11.118;2023-02-03T01:04:51;100292.91;;;6.32;47.34
49759;BME280;35654;46.080;11.118;2023-02-03T01:07:17;100303.13;;;6.25;47.48
49759;BME280;35654;46.080;11.118;2023-02-03T01:09:44;100300.06;;;6.21;47.70
49759;BME280;35654;46.080;11.118;2023-02-03T01:12:10;100304.31;;;6.17;47.78
49759;BME280;35654;46.080;11.118;2023-02-03T01:14:37;100298.63;;;6.02;48.58
49759;BME280;35654;46.080;11.118;2023-02-03T01:17:03;100309.63;;;5.96;48.55
49759;BME280;35654;46.080;11.118;2023-02-03T01:19:30;100311.28;;;5.97;49.04
49759;BME280;35654;46.080;11.118;2023-02-03T01:21:57;100309.06;;;5.82;49.56
49759;BME280;35654;46.080;11.118;2023-02-03T01:24:23;100301.41;;;5.67;49.95
49759;BME280;35654;46.080;11.118;2023-02-03T01:26:50;100295.66;;;5.64;50.35
49759;BME280;35654;46.080;11.118;2023-02-03T01:29:16;100294.00;;;5.63;50.25
49759;BME280;35654;46.080;11.118;2023-02-03T01:31:42;100296.94;;;5.61;50.30
49759;BME280;35654;46.080;11.118;2023-02-03T01:34:09;100297.31;;;5.53;51.15
49759;BME280;35654;46.080;11.118;2023-02-03T01:36:35;100289.06;;;5.37;51.53
49759;BME280;35654;46.080;11.118;2023-02-03T01:39:02;100291.31;;;5.28;51.48
49759;BME280;35654;46.080;11.118;2023-02-03T01:41:30;100277.06;;;5.21;52.03
49759;BME280;35654;46.080;11.118;2023-02-03T01:43:56;100276.97;;;5.16;52.48
49759;BME280;35654;46.080;11.118;2023-02-03T01:48:52;100280.16;;;5.13;52.98
49759;BME280;35654;46.080;11.118;2023-02-03T01:51:20;100281.19;;;5.12;53.45
49759;BME280;35654;46.080;11.118;2023-02-03T01:53:47;100282.13;;;5.06;53.47
49759;BME280;35654;46.080;11.118;2023-02-03T01:56:15;100273.66;;;5.02;53.62
49759;BME280;35654;46.080;11.118;2023-02-03T01:58:42;100276.03;;;4.99;53.69
49759;BME280;35654;46.080;11.118;2023-02-03T02:01:10;100286.75;;;4.82;54.63
49759;BME280;35654;46.080;11.118;2023-02-03T02:03:41;100285.34;;;4.80;54.42
49759;BME280;35654;46.080;11.118;2023-02-03T02:06:11;100295.59;;;4.78;55.09
49759;BME280;35654;46.080;11.118;2023-02-03T02:08:37;100294.03;;;4.70;55.12
49759;BME280;35654;46.080;11.118;2023-02-03T02:11:05;100293.19;;;4.58;55.50
49759;BME280;35654;46.080;11.118;2023-02-03T02:13:32;100288.00;;;4.56;55.48
49759;BME280;35654;46.080;11.118;2023-02-03T02:21:44;100292.38;;;4.69;55.30
49759;BME280;35654;46.080;11.118;2023-02-03T02:40:32;100296.78;;;4.29;57.62
49759;BME280;35654;46.080;11.118;2023-02-03T02:45:38;100282.06;;;4.36;57.61
49759;BME280;35654;46.080;11.118;2023-02-03T02:48:07;100284.91;;;4.41;57.52
49759;BME280;35654;46.080;11.118;2023-02-03T02:50:37;100279.97;;;4.38;57.49
49759;BME280;35654;46.080;11.118;2023-02-03T02:53:05;100279.16;;;4.38;57.63
49759;BME280;35654;46.080;11.118;2023-02-03T02:55:33;100281.03;;;4.37;57.43
49759;BME280;35654;46.080;11.118;2023-02-03T02:58:05;100287.13;;;4.33;57.85
49759;BME280;35654;46.080;11.118;2023-02-03T03:00:34;100290.28;;;4.18;58.62
49759;BME280;35654;46.080;11.118;2023-02-03T03:03:15;100289.34;;;4.13;58.69
49759;BME280;35654;46.080;11.118;2023-02-03T03:05:43;100293.53;;;4.08;59.01
49759;BME280;35654;46.080;11.118;2023-02-03T03:08:11;100297.41;;;4.01;59.76
49759;BME280;35654;46.080;11.118;2023-02-03T03:10:40;100294.84;;;3.76;60.30
49759;BME280;35654;46.080;11.118;2023-02-03T03:13:08;100301.53;;;3.74;61.24
49759;BME280;35654;46.080;11.118;2023-02-03T03:15:35;100306.03;;;3.80;60.40
49759;BME280;35654;46.080;11.118;2023-02-03T03:18:04;100302.25;;;3.81;60.62
49759;BME280;35654;46.080;11.118;2023-02-03T03:20:33;100318.13;;;3.77;60.78
49759;BME280;35654;46.080;11.118;2023-02-03T03:23:35;100325.66;;;3.75;60.96
49759;BME280;35654;46.080;11.118;2023-02-03T03:25:56;100331.94;;;3.76;60.96
49759;BME280;35654;46.080;11.118;2023-02-03T03:28:28;100338.53;;;3.80;60.93
49759;BME280;35654;46.080;11.118;2023-02-03T03:30:58;100342.91;;;3.81;60.90
49759;BME280;35654;46.080;11.118;2023-02-03T03:33:24;100344.44;;;3.77;60.87
49759;BME280;35654;46.080;11.118;2023-02-03T03:36:01;100341.63;;;3.65;61.78
49759;BME280;35654;46.080;11.118;2023-02-03T03:38:50;100343.06;;;3.68;61.35
49759;BME280;35654;46.080;11.118;2023-02-03T03:44:05;100329.44;;;3.74;61.34
49759;BME280;35654;46.080;11.118;2023-02-03T03:46:40;100337.94;;;3.78;60.83
49759;BME280;35654;46.080;11.118;2023-02-03T03:49:07;100335.22;;;3.78;60.97
49759;BME280;35654;46.080;11.118;2023-02-03T03:51:40;100342.16;;;3.74;61.57
49759;BME280;35654;46.080;11.118;2023-02-03T03:54:10;100344.88;;;3.74;61.71
49759;BME280;35654;46.080;11.118;2023-02-03T03:56:39;100338.16;;;3.76;61.71
49759;BME280;35654;46.080;11.118;2023-02-03T03:59:07;100329.22;;;3.76;61.42
49759;BME280;35654;46.080;11.118;2023-02-03T04:01:34;100331.91;;;3.58;62.00
49759;BME280;35654;46.080;11.118;2023-02-03T04:04:02;100331.31;;;3.56;62.44
49759;BME280;35654;46.080;11.118;2023-02-03T04:06:30;100337.56;;;3.56;62.40
49759;BME280;35654;46.080;11.118;2023-02-03T04:08:57;100333.59;;;3.59;62.25
49759;BME280;35654;46.080;11.118;2023-02-03T04:11:24;100341.94;;;3.57;62.73
49759;BME280;35654;46.080;11.118;2023-02-03T04:14:09;100342.59;;;3.52;63.39
49759;BME280;35654;46.080;11.118;2023-02-03T04:16:35;100338.41;;;3.57;63.69
49759;BME280;35654;46.080;11.118;2023-02-03T04:19:02;100335.59;;;3.63;62.84
49759;BME280;35654;46.080;11.118;2023-02-03T04:21:29;100337.50;;;3.63;62.64
49759;BME280;35654;46.080;11.118;2023-02-03T04:23:56;100343.59;;;3.58;62.90
49759;BME280;35654;46.080;11.118;2023-02-03T04:26:21;100348.41;;;3.56;63.45
49759;BME280;35654;46.080;11.118;2023-02-03T04:28:48;100352.16;;;3.55;63.90
49759;BME280;35654;46.080;11.118;2023-02-03T04:31:15;100352.00;;;3.50;63.68
49759;BME280;35654;46.080;11.118;2023-02-03T04:33:41;100344.19;;;3.42;63.77
49759;BME280;35654;46.080;11.118;2023-02-03T04:36:07;100337.69;;;3.25;63.86
49759;BME280;35654;46.080;11.118;2023-02-03T04:38:32;100337.44;;;3.08;64.68
49759;BME280;35654;46.080;11.118;2023-02-03T04:40:58;100343.09;;;3.07;64.77
49759;BME280;35654;46.080;11.118;2023-02-03T04:43:24;100330.00;;;3.04;65.63
49759;BME280;35654;46.080;11.118;2023-02-03T04:45:50;100328.72;;;3.06;65.43
49759;BME280;35654;46.080;11.118;2023-02-03T04:48:16;100326.47;;;3.03;65.32
49759;BME280;35654;46.080;11.118;2023-02-03T04:50:41;100333.22;;;2.94;65.43
49759;BME280;35654;46.080;11.118;2023-02-03T04:53:07;100336.16;;;2.92;66.38
49759;BME280;35654;46.080;11.118;2023-02-03T04:55:34;100331.72;;;2.98;66.41
49759;BME280;35654;46.080;11.118;2023-02-03T04:58:00;100331.09;;;2.96;66.11
49759;BME280;35654;46.080;11.118;2023-02-03T05:00:28;100346.97;;;2.92;66.51
49759;BME280;35654;46.080;11.118;2023-02-03T05:02:54;100354.09;;;2.87;65.92
49759;BME280;35654;46.080;11.118;2023-02-03T05:05:21;100348.34;;;2.77;66.47
49759;BME280;35654;46.080;11.118;2023-02-03T05:07:47;100348.78;;;2.74;67.11
49759;BME280;35654;46.080;11.118;2023-02-03T05:10:14;100352.31;;;2.74;67.11
49759;BME280;35654;46.080;11.118;2023-02-03T05:12:41;100350.19;;;2.76;67.56
49759;BME280;35654;46.080;11.118;2023-02-03T05:15:08;100346.47;;;2.77;67.21
49759;BME280;35654;46.080;11.118;2023-02-03T05:17:34;100350.00;;;2.78;67.59
49759;BME280;35654;46.080;11.118;2023-02-03T05:20:04;100360.22;;;2.76;67.61
49759;BME280;35654;46.080;11.118;2023-02-03T05:22:31;100357.50;;;2.76;67.61
49759;BME280;35654;46.080;11.118;2023-02-03T05:25:01;100366.50;;;2.70;67.42
49759;BME280;35654;46.080;11.118;2023-02-03T05:27:27;100364.91;;;2.62;67.72
49759;BME280;35654;46.080;11.118;2023-02-03T05:29:53;100365.34;;;2.59;67.87
49759;BME280;35654;46.080;11.118;2023-02-03T05:32:20;100358.53;;;2.50;68.05
49759;BME280;35654;46.080;11.118;2023-02-03T05:34:46;100358.38;;;2.45;68.81
49759;BME280;35654;46.080;11.118;2023-02-03T05:37:13;100352.72;;;2.47;68.53
49759;BME280;35654;46.080;11.118;2023-02-03T05:39:40;100351.09;;;2.46;68.75
49759;BME280;35654;46.080;11.118;2023-02-03T05:42:05;100353.41;;;2.42;68.87
49759;BME280;35654;46.080;11.118;2023-02-03T05:44:31;100352.56;;;2.42;68.89
49759;BME280;35654;46.080;11.118;2023-02-03T05:46:58;100355.50;;;2.40;68.98
49759;BME280;35654;46.080;11.118;2023-02-03T05:49:24;100360.25;;;2.38;69.54
49759;BME280;35654;46.080;11.118;2023-02-03T05:51:53;100368.59;;;2.37;69.86
49759;BME280;35654;46.080;11.118;2023-02-03T05:54:20;100353.44;;;2.35;70.08
49759;BME280;35654;46.080;11.118;2023-02-03T05:56:45;100347.41;;;2.33;69.90
49759;BME280;35654;46.080;11.118;2023-02-03T05:59:12;100347.63;;;2.32;70.37
49759;BME280;35654;46.080;11.118;2023-02-03T06:01:38;100338.50;;;2.26;70.18
49759;BME280;35654;46.080;11.118;2023-02-03T06:04:05;100340.22;;;2.21;70.52
49759;BME280;35654;46.080;11.118;2023-02-03T06:06:31;100343.75;;;2.21;71.05
49759;BME280;35654;46.080;11.118;2023-02-03T06:09:05;100360.38;;;2.18;70.54
49759;BME280;35654;46.080;11.118;2023-02-03T06:11:31;100378.47;;;2.18;70.90
49759;BME280;35654;46.080;11.118;2023-02-03T06:13:56;100395.13;;;2.15;71.17
49759;BME280;35654;46.080;11.118;2023-02-03T06:16:26;100399.28;;;2.11;71.55
49759;BME280;35654;46.080;11.118;2023-02-03T06:18:52;100403.03;;;2.10;72.19
49759;BME280;35654;46.080;11.118;2023-02-03T06:21:17;100395.13;;;2.15;71.78
49759;BME280;35654;46.080;11.118;2023-02-03T06:23:43;100410.72;;;2.13;71.80
49759;BME280;35654;46.080;11.118;2023-02-03T06:26:09;100424.22;;;2.13;71.72
49759;BME280;35654;46.080;11.118;2023-02-03T06:28:35;100433.16;;;2.13;71.74
49759;BME280;35654;46.080;11.118;2023-02-03T06:31:03;100423.00;;;2.09;71.60
49759;BME280;35654;46.080;11.118;2023-02-03T06:33:30;100424.88;;;2.02;71.95
49759;BME280;35654;46.080;11.118;2023-02-03T06:35:57;100422.00;;;2.03;72.04
49759;BME280;35654;46.080;11.118;2023-02-03T06:38:23;100424.47;;;1.98;72.07
49759;BME280;35654;46.080;11.118;2023-02-03T06:40:50;100410.53;;;2.01;71.71
49759;BME280;35654;46.080;11.118;2023-02-03T06:43:17;100407.03;;;2.01;71.59
49759;BME280;35654;46.080;11.118;2023-02-03T06:45:46;100422.16;;;2.08;71.56
49759;BME280;35654;46.080;11.118;2023-02-03T06:48:13;100412.63;;;2.06;71.95
49759;BME280;35654;46.080;11.118;2023-02-03T06:50:40;100417.59;;;2.09;72.00
49759;BME280;35654;46.080;11.118;2023-02-03T06:53:07;100405.06;;;2.21;71.41
49759;BME280;35654;46.080;11.118;2023-02-03T06:55:33;100408.56;;;2.28;71.14
49759;BME280;35654;46.080;11.118;2023-02-03T06:58:00;100418.09;;;2.37;70.51
49759;BME280;35654;46.080;11.118;2023-02-03T07:00:26;100419.47;;;2.46;70.44
49759;BME280;35654;46.080;11.118;2023-02-03T07:02:53;100432.56;;;2.49;69.69
49759;BME280;35654;46.080;11.118;2023-02-03T07:05:21;100429.91;;;2.43;69.44
49759;BME280;35654;46.080;11.118;2023-02-03T07:07:47;100433.28;;;2.31;70.39
49759;BME280;35654;46.080;11.118;2023-02-03T07:10:14;100434.75;;;2.34;70.06
49759;BME280;35654;46.080;11.118;2023-02-03T07:12:40;100443.69;;;2.28;70.45
49759;BME280;35654;46.080;11.118;2023-02-03T07:15:07;100444.28;;;2.37;70.15
49759;BME280;35654;46.080;11.118;2023-02-03T07:17:33;100438.81;;;2.43;70.67
49759;BME280;35654;46.080;11.118;2023-02-03T07:20:00;100446.06;;;2.49;69.97
49759;BME280;35654;46.080;11.118;2023-02-03T07:22:27;100437.75;;;2.51;70.65
49759;BME280;35654;46.080;11.118;2023-02-03T07:24:53;100444.59;;;2.53;69.98
49759;BME280;35654;46.080;11.118;2023-02-03T07:27:20;100445.00;;;2.57;69.41
49759;BME280;35654;46.080;11.118;2023-02-03T07:29:46;100432.34;;;2.51;69.94
49759;BME280;35654;46.080;11.118;2023-02-03T07:32:13;100422.41;;;2.45;70.07
49759;BME280;35654;46.080;11.118;2023-02-03T07:34:39;100420.28;;;2.53;69.67
49759;BME280;35654;46.080;11.118;2023-02-03T07:37:05;100412.78;;;2.55;69.51
49759;BME280;35654;46.080;11.118;2023-02-03T07:39:32;100407.75;;;2.59;69.42
49759;BME280;35654;46.080;11.118;2023-02-03T07:41:59;100405.22;;;2.64;69.23
49759;BME280;35654;46.080;11.118;2023-02-03T07:44:26;100404.97;;;2.72;69.31
49759;BME280;35654;46.080;11.118;2023-02-03T07:46:52;100408.84;;;2.82;68.53
49759;BME280;35654;46.080;11.118;2023-02-03T07:49:19;100420.66;;;2.88;67.85
49759;BME280;35654;46.080;11.118;2023-02-03T07:51:44;100420.56;;;3.01;67.89
49759;BME280;35654;46.080;11.118;2023-02-03T07:54:11;100416.53;;;3.10;68.32
49759;BME280;35654;46.080;11.118;2023-02-03T07:56:38;100409.13;;;3.24;67.82
49759;BME280;35654;46.080;11.118;2023-02-03T07:59:04;100407.13;;;3.37;66.63
49759;BME280;35654;46.080;11.118;2023-02-03T08:01:30;100410.75;;;3.49;65.81
49759;BME280;35654;46.080;11.118;2023-02-03T08:03:59;100395.41;;;3.62;64.91
49759;BME280;35654;46.080;11.118;2023-02-03T08:06:27;100392.88;;;3.67;65.33
49759;BME280;35654;46.080;11.118;2023-02-03T08:08:55;100393.63;;;3.74;65.13
49759;BME280;35654;46.080;11.118;2023-02-03T08:11:22;100398.50;;;3.83;64.99
49759;BME280;35654;46.080;11.118;2023-02-03T08:13:49;100396.56;;;3.90;65.10
49759;BME280;35654;46.080;11.118;2023-02-03T08:16:15;100403.69;;;4.03;65.16
49759;BME280;35654;46.080;11.118;2023-02-03T08:18:42;100414.59;;;4.15;64.13
49759;BME280;35654;46.080;11.118;2023-02-03T08:21:09;100420.09;;;4.26;63.49
49759;BME280;35654;46.080;11.118;2023-02-03T08:23:36;100419.63;;;4.29;63.53
49759;BME280;35654;46.080;11.118;2023-02-03T08:26:02;100422.50;;;4.16;64.17
49759;BME280;35654;46.080;11.118;2023-02-03T08:28:29;100424.84;;;4.13;64.19
49759;BME280;35654;46.080;11.118;2023-02-03T08:30:56;100432.88;;;4.19;63.79
49759;BME280;35654;46.080;11.118;2023-02-03T08:33:23;100436.94;;;4.28;63.71
49759;BME280;35654;46.080;11.118;2023-02-03T08:35:49;100434.66;;;4.43;63.09
49759;BME280;35654;46.080;11.118;2023-02-03T08:38:15;100429.31;;;4.55;62.60
49759;BME280;35654;46.080;11.118;2023-02-03T08:40:42;100427.44;;;4.67;62.08
49759;BME280;35654;46.080;11.118;2023-02-03T08:43:08;100423.47;;;4.81;62.26
49759;BME280;35654;46.080;11.118;2023-02-03T08:45:37;100422.31;;;4.89;61.19
49759;BME280;35654;46.080;11.118;2023-02-03T08:48:04;100425.41;;;5.04;60.39
49759;BME280;35654;46.080;11.118;2023-02-03T08:50:30;100432.03;;;5.19;59.31
49759;BME280;35654;46.080;11.118;2023-02-03T08:52:57;100434.31;;;5.34;58.86
49759;BME280;35654;46.080;11.118;2023-02-03T08:55:23;100425.44;;;5.50;58.27
49759;BME280;35654;46.080;11.118;2023-02-03T08:57:50;100431.00;;;5.67;57.78
49759;BME280;35654;46.080;11.118;2023-02-03T09:00:16;100437.38;;;5.84;57.27
49759;BME280;35654;46.080;11.118;2023-02-03T09:02:43;100435.88;;;6.00;56.31
49759;BME280;35654;46.080;11.118;2023-02-03T09:05:09;100441.38;;;6.16;55.94
49759;BME280;35654;46.080;11.118;2023-02-03T09:07:36;100451.97;;;6.29;54.76
49759;BME280;35654;46.080;11.118;2023-02-03T09:10:03;100447.91;;;6.43;54.52
49759;BME280;35654;46.080;11.118;2023-02-03T09:12:30;100429.75;;;6.61;54.35
49759;BME280;35654;46.080;11.118;2023-02-03T09:14:56;100421.63;;;6.77;52.86
49759;BME280;35654;46.080;11.118;2023-02-03T09:17:23;100415.03;;;6.90;52.24
49759;BME280;35654;46.080;11.118;2023-02-03T09:19:49;100406.66;;;7.08;51.87
49759;BME280;35654;46.080;11.118;2023-02-03T09:22:16;100405.69;;;7.14;50.90
49759;BME280;35654;46.080;11.118;2023-02-03T09:24:43;100402.88;;;7.26;50.87
49759;BME280;35654;46.080;11.118;2023-02-03T09:27:09;100412.66;;;7.43;50.07
49759;BME280;35654;46.080;11.118;2023-02-03T09:29:36;100418.09;;;7.60;49.95
49759;BME280;35654;46.080;11.118;2023-02-03T09:32:03;100413.44;;;7.77;48.98
49759;BME280;35654;46.080;11.118;2023-02-03T09:34:34;100425.38;;;7.93;48.40
49759;BME280;35654;46.080;11.118;2023-02-03T09:37:01;100416.41;;;7.92;47.84
49759;BME280;35654;46.080;11.118;2023-02-03T09:39:27;100423.13;;;8.06;47.86
49759;BME280;35654;46.080;11.118;2023-02-03T09:47:21;100415.69;;;8.40;46.30
49759;BME280;35654;46.080;11.118;2023-02-03T09:49:54;100404.41;;;8.58;45.30
49759;BME280;35654;46.080;11.118;2023-02-03T09:52:25;100396.56;;;8.67;43.97
49759;BME280;35654;46.080;11.118;2023-02-03T09:57:51;100392.47;;;8.64;43.52
49759;BME280;35654;46.080;11.118;2023-02-03T10:00:29;100383.16;;;8.92;43.22
49759;BME280;35654;46.080;11.118;2023-02-03T10:03:07;100373.81;;;9.15;42.25
49759;BME280;35654;46.080;11.118;2023-02-03T10:05:45;100358.59;;;9.24;41.76
49759;BME280;35654;46.080;11.118;2023-02-03T10:11:42;100340.59;;;9.80;41.41
49759;BME280;35654;46.080;11.118;2023-02-03T10:19:20;100326.16;;;9.94;41.07
49759;BME280;35654;46.080;11.118;2023-02-03T10:21:51;100312.19;;;9.91;40.78
49759;BME280;35654;46.080;11.118;2023-02-03T10:24:22;100314.13;;;9.95;41.05
49759;BME280;35654;46.080;11.118;2023-02-03T10:26:50;100311.94;;;9.98;41.11
49759;BME280;35654;46.080;11.118;2023-02-03T10:29:27;100305.16;;;10.10;40.92
49759;BME280;35654;46.080;11.118;2023-02-03T10:31:57;100298.09;;;10.19;40.62
49759;BME280;35654;46.080;11.118;2023-02-03T10:34:24;100292.38;;;10.26;40.79
49759;BME280;35654;46.080;11.118;2023-02-03T10:42:07;100276.53;;;10.73;39.87
49759;BME280;35654;46.080;11.118;2023-02-03T10:44:41;100267.91;;;11.55;38.63
49759;BME280;35654;46.080;11.118;2023-02-03T10:49:49;100254.13;;;20.24;24.41
49759;BME280;35654;46.080;11.118;2023-02-03T10:52:25;100251.25;;;22.09;21.47
49759;BME280;35654;46.080;11.118;2023-02-03T10:54:52;100244.97;;;22.24;20.98
49759;BME280;35654;46.080;11.118;2023-02-03T10:57:19;100241.16;;;21.11;22.08
49759;BME280;35654;46.080;11.118;2023-02-03T10:59:46;100237.44;;;23.35;20.00
49759;BME280;35654;46.080;11.118;2023-02-03T11:02:26;100236.94;;;24.43;18.59
49759;BME280;35654;46.080;11.118;2023-02-03T11:07:38;100219.63;;;25.82;17.78
49759;BME280;35654;46.080;11.118;2023-02-03T11:10:19;100217.28;;;25.61;16.91
49759;BME280;35654;46.080;11.118;2023-02-03T11:12:49;100207.56;;;26.04;16.57
49759;BME280;35654;46.080;11.118;2023-02-03T11:15:15;100204.69;;;24.68;17.62
49759;BME280;35654;46.080;11.118;2023-02-03T11:17:42;100196.50;;;24.98;17.21
49759;BME280;35654;46.080;11.118;2023-02-03T11:20:15;100189.72;;;23.56;18.40
49759;BME280;35654;46.080;11.118;2023-02-03T11:22:42;100189.78;;;23.28;18.70
49759;BME280;35654;46.080;11.118;2023-02-03T11:25:18;100176.91;;;22.96;19.37
49759;BME280;35654;46.080;11.118;2023-02-03T11:27:45;100167.09;;;22.86;18.83
49759;BME280;35654;46.080;11.118;2023-02-03T11:30:25;100157.56;;;23.34;18.76
49759;BME280;35654;46.080;11.118;2023-02-03T11:32:53;100145.19;;;22.88;19.08
49759;BME280;35654;46.080;11.118;2023-02-03T11:37:52;100135.16;;;24.93;17.71
49759;BME280;35654;46.080;11.118;2023-02-03T11:40:31;100127.44;;;25.09;17.43
49759;BME280;35654;46.080;11.118;2023-02-03T11:43:02;100113.25;;;27.40;15.52
49759;BME280;35654;46.080;11.118;2023-02-03T11:45:43;100120.09;;;23.86;17.70
49759;BME280;35654;46.080;11.118;2023-02-03T12:30:56;100000.25;;;23.88;18.30
49759;BME280;35654;46.080;11.118;2023-02-03T12:33:37;99995.84;;;23.67;18.59
49759;BME280;35654;46.080;11.118;2023-02-03T12:36:17;99989.72;;;24.84;17.56
49759;BME280;35654;46.080;11.118;2023-02-03T12:38:55;99982.06;;;25.04;17.52
49759;BME280;35654;46.080;11.118;2023-02-03T12:41:27;99979.56;;;25.51;16.69
49759;BME280;35654;46.080;11.118;2023-02-03T12:43:59;99988.53;;;24.85;17.56
49759;BME280;35654;46.080;11.118;2023-02-03T12:46:36;99985.44;;;24.67;17.54
49759;BME280;35654;46.080;11.118;2023-02-03T12:51:58;99962.00;;;27.12;15.42
49759;BME280;35654;46.080;11.118;2023-02-03T12:57:17;99944.09;;;25.99;16.38
49759;BME280;35654;46.080;11.118;2023-02-03T12:59:50;99937.16;;;26.70;15.93
49759;BME280;35654;46.080;11.118;2023-02-03T13:02:19;99934.78;;;25.58;16.11
49759;BME280;35654;46.080;11.118;2023-02-03T13:04:48;99936.13;;;24.85;16.66
49759;BME280;35654;46.080;11.118;2023-02-03T13:12:35;99943.00;;;26.47;15.40
49759;BME280;35654;46.080;11.118;2023-02-03T13:17:45;99943.19;;;26.72;15.48
49759;BME280;35654;46.080;11.118;2023-02-03T13:22:41;99929.84;;;27.92;14.79
49759;BME280;35654;46.080;11.118;2023-02-03T13:25:23;99918.31;;;28.57;14.64
49759;BME280;35654;46.080;11.118;2023-02-03T13:39:14;99899.22;;;24.57;17.24
49759;BME280;35654;46.080;11.118;2023-02-03T13:41:45;99900.88;;;24.13;17.99
49759;BME280;35654;46.080;11.118;2023-02-03T13:44:12;99904.25;;;25.86;16.43
49759;BME280;35654;46.080;11.118;2023-02-03T13:46:45;99898.44;;;26.42;15.87
49759;BME280;35654;46.080;11.118;2023-02-03T13:49:16;99896.66;;;24.22;17.58
49759;BME280;35654;46.080;11.118;2023-02-03T13:51:46;99899.72;;;23.95;17.60
49759;BME280;35654;46.080;11.118;2023-02-03T13:54:13;99887.97;;;25.66;16.80
49759;BME280;35654;46.080;11.118;2023-02-03T13:56:40;99886.78;;;24.55;17.29
49759;BME280;35654;46.080;11.118;2023-02-03T14:01:38;99872.00;;;25.07;17.00
49759;BME280;35654;46.080;11.118;2023-02-03T14:06:57;99870.84;;;24.81;17.70
49759;BME280;35654;46.080;11.118;2023-02-03T14:17:52;99877.09;;;23.81;19.16
49759;BME280;35654;46.080;11.118;2023-02-03T14:20:52;99880.66;;;23.04;19.58
49759;BME280;35654;46.080;11.118;2023-02-03T14:25:23;99869.56;;;25.35;19.32
49759;BME280;35654;46.080;11.118;2023-02-03T14:27:58;99882.03;;;24.10;21.12
49759;BME280;35654;46.080;11.118;2023-02-03T14:30:23;99871.50;;;24.49;21.38
49759;BME280;35654;46.080;11.118;2023-02-03T14:33:22;99854.84;;;22.41;23.83
49759;BME280;35654;46.080;11.118;2023-02-03T14:35:40;99849.16;;;21.20;25.46
49759;BME280;35654;46.080;11.118;2023-02-03T14:38:10;99854.75;;;20.31;26.78
49759;BME280;35654;46.080;11.118;2023-02-03T14:53:25;99879.06;;;14.54;36.98
49759;BME280;35654;46.080;11.118;2023-02-03T14:56:10;99883.34;;;14.20;37.18
49759;BME280;35654;46.080;11.118;2023-02-03T14:58:43;99874.72;;;13.53;39.12
49759;BME280;35654;46.080;11.118;2023-02-03T15:01:26;99866.84;;;12.77;41.04
49759;BME280;35654;46.080;11.118;2023-02-03T15:06:38;99877.66;;;12.50;41.02
49759;BME280;35654;46.080;11.118;2023-02-03T15:09:19;99879.28;;;12.51;40.88
49759;BME280;35654;46.080;11.118;2023-02-03T15:11:46;99878.25;;;12.47;40.07
49759;BME280;35654;46.080;11.118;2023-02-03T15:16:43;99879.31;;;12.27;40.48
49759;BME280;35654;46.080;11.118;2023-02-03T15:19:16;99875.25;;;12.24;40.53
49759;BME280;35654;46.080;11.118;2023-02-03T15:21:42;99872.31;;;12.16;41.23
49759;BME280;35654;46.080;11.118;2023-02-03T15:24:14;99864.63;;;11.94;41.52
49759;BME280;35654;46.080;11.118;2023-02-03T15:26:48;99844.66;;;11.89;41.75
49759;BME280;35654;46.080;11.118;2023-02-03T15:29:18;99840.63;;;11.52;42.55
49759;BME280;35654;46.080;11.118;2023-02-03T15:31:46;99842.06;;;11.74;42.25
49759;BME280;35654;46.080;11.118;2023-02-03T15:36:45;99850.78;;;11.81;42.35
49759;BME280;35654;46.080;11.118;2023-02-03T15:41:57;99848.16;;;11.65;43.07
49759;BME280;35654;46.080;11.118;2023-02-03T15:44:28;99858.63;;;11.63;43.14
49759;BME280;35654;46.080;11.118;2023-02-03T15:46:56;99860.66;;;11.53;43.43